Jueves, 24 de Julio del 2014

portal contactenos mapa del sitio buscar Revisar Correo Corporativo

Reporte METAR Consolidado

|| Reporte TAF Consolidado ||

Informe METAR emitido cada hora.

METAR

ESTACIÓN

AEROPUERTO

HORA UTC

DESCRIPCIÓN

SLGM

Guayaramerín

10-49S|65-20W

21:00

SLGM 242100Z 36006KT 8000 VCSH SCT017 FEW020CB BKN200 32/22 Q1010 A2983 HR54 CB/SH SE/S=

SLRI

Riberalta

11-00S|66-04W

21:00

SLRI 242100Z 04006KT 7000 VCSH SCT017 FEW020CB BKN200 31/22 Q1011 A2986 HR58 CB SH E/SE/S=

SLCO

Cobija

11-02S|68-47W

21:00

COR SLCO 242100Z 36008KT 9999 SCT020 FEW023CB SCT200 31/22 Q1011 A2986 983.8 HR59 CB S=

SLJO

San Joaquin

13-03S|64-39W

21:00

SLJO 242100Z 16018KT 9999 BKN015 OVC070 15/13 Q1014 A2994 HR89 RWY NML=

SLRA

San Ramón

13-15S|64-36W

21:00

SLRA 242100Z 14015G25KT 8000 VCSH BKN008 OVC070 15/12 Q1014 A2997 HR85 SH N/SE RWY OPR C206=

SLMG

San Magdalena

13-15S|64-03W

21:00

SLMG 242100Z 14014KT 9999 BKN010 OVC070 14/12 Q1015 A2988 HR88 RWY NML=

SLBU

Baures

13-39S|63-42W

21:00

SLBU 242100Z 18015KT 9999 BKN010 OVC070 14/11 Q1018 A3007 HR82 RWY OPR C206=

SLSA

Santa Ana de Yacuma

13-45S|65-26W

21:00

SLSA 242100Z 14015G25KT 8000 VCSH BKN007 FEW023CB OVC070 13/12 Q1015 A2998 HR93 RERA CB/SH W/NW=

SLSR

Santa Rosa

14-04S|66-47W

21:00

SLSR 242100Z 12015G25KT 8000 VCSH BKN010 OVC070 13/12 Q1015 A2999 HR89 SH E/SE/S RWY HUM OPR=

SLRY

Reyes

14-18S|67-21W

21:00

SLRY 242100Z 16014KT 1000 +RA BKN006 BKN012 FEW023CB OVC070 12/12 Q1018 A3006 HR100 CB/N/NW RWY WET OPR 1 000M C206=

SLRQ

Rurrenabaque

14-25S|67-29W

21:00

SLRQ 242100Z 14014G24KT 2000 -RA SCT004 OVC008 14/14 Q1016 A3002 HR100=

SLAP

Apolo

14-44S|68-24W

19:00

SLAP 301900Z WO ATTN=

SLTR

Trinidad

14-49S|64-54W

21:00

SLTR 242100Z 15018G30KT 7000 -RA BKN005 FEW020CB OVC070 12/11 Q1019 A3010 1000.6 HR94 CB N/NW NOSIG=

SLSB

San Borja

14-51S|66-44W

21:00

SLSB 242100Z 11010G20KT 3000 -RA BKN006 OVC070 13/12 Q1018 A3007 HR94 RWY WET INOP=

SLSM

San Ignacio de Moxos

14-57S|65-38W

21:00

SLSM 242100Z 15018KT 4000 -RA BKN008 FEW023CB OVC070 11/11 Q1019 A3010 HR100 CB N/NE/W RWY INOP=

SLAS

Ascención de Guarayos

15-55S|63-09W

21:00

SLAS 242100Z 16012KT 5000 -RA BKN020 OVC070 10/08 Q1021 A3017 HR88 RWY WET OPR=

SLCP

Concepción

16-08S|62-01W

21:00

SLCP 242100Z 18014KT 9999 BKN017 OVC070 09/08 Q1022 A3018 HR95 RERA RWY WET OPR=

SLLP

Internaciónal El Alto

16-08S|68-10W

21:00

SLLP 242100Z 29013G23KT 250V330 9999 FEW015 12/M08 Q1033 A3051 624.7 P93// HR24 NOSIG=

SLJV

San Javier

16-16S|62-28W

21:00

SLJV 242100Z 18013KT 5000 -RA BKN013 OVC070 08/08 Q1019 A3009 HR100 RWY WET OPR=

SLTI

San Matías

16-20S|58-24W

21:00

SLTI 242100Z 18015KT 9999 OVC015 13/11 Q1028 A3036 HR89 RWY HUM OPR=

SLSI

San Ignacio de Velasco

16-23S|60-57W

21:00

SLSI 242100Z 18005KT 9999 BKN015 OVC080 08/07 Q1021 A3015 HR93 RERA RWY WET OPR=

SLCB

Cochabamba

17-25S|66-10W

21:00

SLCB 242100Z 26011KT 9999 FEW027 22/M03 Q1019 A3010 747.0 HR19 FU NOSIG=

SLCN

Charaña

17-35S|69-25W

-

SLCN WO ATTN=

SLVR

Internaciónal Viru Viru

17-38S|63-08W

21:00

SLVR 242100Z 16012KT 9999 BKN025 OVC070 14/05 Q1021 A3017 HR54 NOSIG=

SLET

El Trompillo

17-48S|63-10W

21:00

SLET 242100Z 15015G26KT 9999 BKN025 OVC070 14/03 Q1020 A3014 HR47 NOSIG=

SLJE

San José de Chiquitos

17-49S|60-44W

21:00

SLJE 242100Z 18006KT 9999 SCT017 OVC070 13/06 Q1024 A3024 HR61 RWY WET OPR=

SLOR

Oruro

17-57S|67-04W

21:00

SLOR 242100Z 30018KT 9999 FEW016 14/M10 Q1030 A3043 652.7 HR17=

SLRB

Roboré

18-19S|59-45W

21:00

SLRB 242100Z 16004KT 9999 BKN023 OVC070 12/09 Q1025 A3027 HR91 RWY HUM OPR=

SLVG

Valle Grande

18-28S|64-05W

21:00

SLVG 242100Z 16015KT 9999 OVC015 03/01 Q1025 A3027 HR84 RWY NML =

SLPS

Puerto Suárez

18-58S|57-49W

21:00

SLPS 242100Z 23008KT 9999 SCT013 OVC070 13/09 Q1022 A3019 HR80=

SLSU

Sucre

19-00S|65-17W

21:00

SLSU 242100Z 06014KT 9999 NSC 14/M03 Q1023 A3022 HR30=

SLPO

Potosí

19-32S|65-43W

21:00

SLPO 242100Z 24015KT 9999 NSC 13/M07 Q1031 A3045 HR21=

SLAG

Monteagudo

19-49S|63-58W

21:00

SLAG 242100Z 18003KT 9999 BKN030 OVC070 12/05 Q1028 A3037 HR61 RWY CLSD=

SLCA

Camiri

20-00S|63-31W

21:00

SLCA 242100Z 00000KT 9999 BKN036 BKN070 14/02 Q1025 A3027 HR44 RWY NML=

SLUY

Uyuni

20-27S|62-52W

21:00

SLUY 242100Z 36018KT 9999 NSC 09/M17 Q1029 A3039 654.9 HR16 CI=

SLVM

Villamontes

21-15S|63-24W

21:00

SLVM 242100Z 18006KT 9999 NSC 17/04 Q1024 A3024 HR43=

SLTJ

Tarija

21-33S|64-42W

21:00

SLTJ 242100Z 17004KT 9999 SCT030 BKN070 07/M01 Q1023 A3023 HR59=

SLYA

Yacuiba

21-57S|63-39W

21:00

SLYA 242100Z 18008KT 9999 FEW025 14/07 Q1024 A3026 HR61=

SLBJ

Bermejo

22-46S|64-18W

21:00

SLBJ 242100Z 18004KT 9999 FEW015 17/08 Q1028 A3036 HR57=